Terminal Aerodrome Forecast
Issued by NWS North Platte, NE

Home | Current Version | Previous Version | Text Only | Print | Product List | Glossary On
Versions: 1 2 3 4 5 6 7 8 9 10 11 12 13 14 15
000
FTUS43 KLBF 232325
TAFVTN
TAF
KVTN 232325Z 2400/2424 15012KT P6SM SCT150
     FM240300 16006KT P6SM VCSH BKN090
     FM240600 26008KT P6SM -RA OVC040
     FM240900 29009KT P6SM -RA OVC020
     FM241200 30015G23KT P6SM -RA OVC012
     FM241500 33019G27KT P6SM -RA OVC012=

USA.gov is the U.S. government's official web portal to all federal, state and local government web resources and services.